Time;durP1;ratioP1;P1;durP2;ratioP2;P2;SDS_P1;SDS_P2;PMS_P1;PMS_P2;Temp;Humidity;BMP_temperature;BMP_pressure;BME280_temperature;BME280_humidity;BME280_pressure;Samples;Min_cycle;Max_cycle;Signal;HPM_P1;HPM_P2
2023/03/15 00:00:34;;;;;;;6.38;3.30;;;2.70;99.80;;;;;;5062229;28;20836;-79
2023/03/15 00:03:02;;;;;;;8.45;3.33;;;2.80;99.90;;;;;;5056509;28;20419;-78
2023/03/15 00:05:30;;;;;;;7.60;3.72;;;2.70;99.90;;;;;;5074766;28;20498;-78
2023/03/15 00:07:57;;;;;;;8.80;3.30;;;2.70;99.70;;;;;;5078374;28;20438;-79
2023/03/15 00:10:24;;;;;;;6.07;3.50;;;2.70;99.80;;;;;;5070605;28;20415;-78
2023/03/15 00:12:51;;;;;;;5.57;3.10;;;2.80;99.90;;;;;;5056905;28;20426;-77
2023/03/15 00:15:19;;;;;;;8.43;3.40;;;2.80;99.90;;;;;;5069351;28;20444;-79
2023/03/15 00:17:46;;;;;;;7.18;3.50;;;2.90;99.70;;;;;;5075202;28;20485;-80
2023/03/15 00:20:14;;;;;;;7.90;3.10;;;2.90;99.80;;;;;;5063534;28;20783;-78
2023/03/15 00:22:41;;;;;;;6.97;3.20;;;2.90;99.80;;;;;;5083317;28;20415;-79
2023/03/15 00:25:09;;;;;;;6.40;3.10;;;2.90;99.90;;;;;;5079629;28;20425;-78
2023/03/15 00:27:35;;;;;;;7.45;3.53;;;3.00;99.80;;;;;;5090700;28;20503;-77
2023/03/15 00:30:02;;;;;;;7.35;3.30;;;3.00;99.80;;;;;;5086889;28;20422;-77
2023/03/15 00:32:31;;;;;;;5.97;3.50;;;3.10;99.60;;;;;;5080709;28;20430;-78
2023/03/15 00:34:58;;;;;;;10.82;3.88;;;3.10;99.40;;;;;;5072207;28;20452;-78
2023/03/15 00:37:24;;;;;;;8.50;4.15;;;3.10;99.70;;;;;;5083866;28;20413;-79
2023/03/15 00:39:54;;;;;;;8.00;4.30;;;3.10;99.70;;;;;;5079373;28;20407;-79
2023/03/15 00:42:26;;;;;;;9.68;4.53;;;3.10;99.80;;;;;;5065761;28;20433;-77
2023/03/15 00:44:54;;;;;;;9.90;4.47;;;3.10;99.90;;;;;;5078842;28;20457;-76
2023/03/15 00:47:21;;;;;;;9.32;5.13;;;3.20;99.90;;;;;;5085466;28;20407;-79
2023/03/15 00:49:50;;;;;;;10.98;5.00;;;3.20;99.90;;;;;;5074459;28;20432;-79
2023/03/15 00:52:17;;;;;;;8.68;5.10;;;3.20;99.90;;;;;;5075996;28;20414;-81
2023/03/15 00:54:43;;;;;;;8.60;5.00;;;3.20;99.90;;;;;;5074275;28;20423;-81
2023/03/15 00:57:10;;;;;;;5.88;4.30;;;3.20;99.90;;;;;;5084489;28;20417;-79
2023/03/15 00:59:37;;;;;;;8.85;4.70;;;3.20;99.90;;;;;;5074063;28;20462;-77
2023/03/15 01:02:05;;;;;;;7.70;5.13;;;3.20;99.90;;;;;;5070968;28;20419;-76
2023/03/15 01:04:32;;;;;;;9.32;5.00;;;3.30;99.90;;;;;;5070350;28;20422;-77
2023/03/15 01:07:00;;;;;;;8.55;5.55;;;3.30;99.90;;;;;;5087319;28;20420;-77
2023/03/15 01:09:27;;;;;;;10.07;5.32;;;3.30;99.90;;;;;;5069230;28;20789;-78
2023/03/15 01:11:53;;;;;;;10.05;6.03;;;3.30;99.90;;;;;;5073837;22;21037;-74
2023/03/15 01:14:20;;;;;;;9.98;5.97;;;3.30;99.90;;;;;;5064533;28;20419;-74
2023/03/15 01:16:47;;;;;;;7.97;5.93;;;3.30;99.90;;;;;;5052079;28;20438;-75
2023/03/15 01:19:14;;;;;;;10.40;6.20;;;3.20;99.90;;;;;;5062894;28;20420;-74
2023/03/15 01:21:41;;;;;;;7.57;5.10;;;3.20;99.90;;;;;;5044621;28;20444;-75
2023/03/15 01:24:12;;;;;;;8.55;5.82;;;3.20;99.90;;;;;;5048654;28;20425;-74
2023/03/15 01:26:39;;;;;;;8.13;5.40;;;3.10;99.90;;;;;;5045959;28;20441;-74
2023/03/15 01:29:06;;;;;;;9.27;6.07;;;3.20;99.90;;;;;;5051463;28;20460;-73
2023/03/15 01:31:33;;;;;;;11.02;6.18;;;3.20;99.90;;;;;;5049945;28;20405;-74
2023/03/15 01:34:00;;;;;;;8.77;6.40;;;3.20;99.90;;;;;;5048123;28;20421;-74
2023/03/15 01:36:27;;;;;;;12.47;7.30;;;3.20;99.90;;;;;;5034422;28;20433;-75
2023/03/15 01:38:54;;;;;;;8.98;6.40;;;3.10;99.90;;;;;;5032504;28;20420;-74
2023/03/15 01:41:24;;;;;;;9.70;6.47;;;3.20;99.90;;;;;;5033574;28;20834;-74
2023/03/15 01:43:51;;;;;;;10.65;6.25;;;3.10;99.90;;;;;;5047777;28;20421;-74
2023/03/15 01:46:23;;;;;;;8.88;6.00;;;2.90;99.90;;;;;;5037594;28;20451;-73
2023/03/15 01:48:55;;;;;;;8.73;6.95;;;2.80;99.90;;;;;;5051072;28;20436;-75
2023/03/15 01:51:26;;;;;;;9.15;6.32;;;2.70;99.90;;;;;;5051309;28;20437;-74
2023/03/15 01:54:00;;;;;;;9.35;7.00;;;2.60;99.90;;;;;;5059950;28;20437;-74
2023/03/15 01:56:30;;;;;;;10.43;7.05;;;2.50;99.90;;;;;;5038269;28;20447;-74
2023/03/15 01:58:59;;;;;;;8.60;7.47;;;2.40;99.90;;;;;;5052963;28;20425;-74
2023/03/15 02:01:26;;;;;;;10.95;7.93;;;2.40;99.90;;;;;;5059599;28;20409;-73
2023/03/15 02:03:57;;;;;;;10.80;8.48;;;2.40;99.90;;;;;;5032808;28;20455;-73
2023/03/15 02:06:24;;;;;;;11.75;8.18;;;2.30;99.90;;;;;;5040331;28;20788;-73
2023/03/15 02:08:54;;;;;;;12.98;8.70;;;2.30;99.90;;;;;;5044315;28;20879;-73
2023/03/15 02:11:24;;;;;;;11.20;9.68;;;2.30;99.90;;;;;;5026157;28;20424;-73
2023/03/15 02:13:53;;;;;;;11.98;9.70;;;2.30;99.90;;;;;;5052246;28;20870;-72
2023/03/15 02:16:21;;;;;;;12.77;8.80;;;2.20;99.90;;;;;;5045575;28;20429;-75
2023/03/15 02:18:48;;;;;;;12.23;8.90;;;2.10;99.90;;;;;;5039516;28;20450;-73
2023/03/15 02:21:29;;;;;;;12.35;9.60;;;2.00;99.90;;;;;;5042280;28;20433;-73
2023/03/15 02:24:05;;;;;;;10.30;9.23;;;1.80;99.90;;;;;;5043850;28;20532;-74
2023/03/15 02:26:40;;;;;;;11.88;9.43;;;1.70;99.90;;;;;;5053509;28;20418;-72
2023/03/15 02:29:08;;;;;;;11.37;10.00;;;1.50;99.90;;;;;;5049008;28;20734;-73
2023/03/15 02:31:36;;;;;;;11.50;9.60;;;1.40;99.90;;;;;;5041541;28;20409;-73
2023/03/15 02:34:04;;;;;;;10.20;8.43;;;1.30;99.90;;;;;;5047234;28;20488;-73
2023/03/15 02:36:31;;;;;;;13.15;8.38;;;1.20;99.90;;;;;;5039615;28;20437;-71
2023/03/15 02:38:58;;;;;;;10.00;8.70;;;1.00;99.90;;;;;;5042178;28;20514;-71
2023/03/15 02:41:29;;;;;;;10.95;8.32;;;0.90;99.90;;;;;;5053314;28;20420;-70
2023/03/15 02:44:01;;;;;;;11.70;7.85;;;0.80;99.90;;;;;;5026841;28;20424;-73
2023/03/15 02:46:29;;;;;;;12.35;8.80;;;0.80;99.90;;;;;;5046150;28;20426;-71
2023/03/15 02:48:56;;;;;;;13.68;8.40;;;0.70;99.90;;;;;;5033180;28;20442;-71
2023/03/15 02:51:24;;;;;;;10.45;7.93;;;0.60;99.90;;;;;;5038952;28;20725;-71
2023/03/15 02:53:51;;;;;;;13.52;8.10;;;0.60;99.90;;;;;;5049014;28;20428;-70
2023/03/15 02:56:18;;;;;;;9.98;8.68;;;0.60;99.90;;;;;;5049266;28;20417;-69
2023/03/15 02:58:45;;;;;;;10.40;7.57;;;0.60;99.90;;;;;;5041120;28;20437;-69
2023/03/15 03:01:13;;;;;;;9.63;8.40;;;0.60;99.90;;;;;;5037274;28;20471;-69
2023/03/15 03:03:41;;;;;;;13.88;8.35;;;0.60;99.90;;;;;;5047369;28;20413;-69
2023/03/15 03:06:08;;;;;;;12.25;8.40;;;0.60;99.90;;;;;;5042551;28;20448;-70
2023/03/15 03:08:35;;;;;;;11.65;8.80;;;0.60;99.90;;;;;;5045874;28;20505;-70
2023/03/15 03:11:02;;;;;;;12.13;8.20;;;0.60;99.90;;;;;;5046635;28;20438;-69
2023/03/15 03:13:29;;;;;;;11.27;7.82;;;0.70;99.90;;;;;;5045802;28;20425;-70
2023/03/15 03:15:58;;;;;;;9.30;8.15;;;0.70;99.90;;;;;;5042756;28;20617;-70
2023/03/15 03:18:25;;;;;;;10.10;7.95;;;0.70;99.90;;;;;;5044939;28;20427;-70
2023/03/15 03:20:56;;;;;;;9.85;8.38;;;0.80;99.90;;;;;;5044378;28;20577;-70
2023/03/15 03:23:24;;;;;;;11.90;8.48;;;0.80;99.90;;;;;;5041606;28;20425;-69
2023/03/15 03:25:52;;;;;;;11.43;8.43;;;0.80;99.90;;;;;;5017812;28;20430;-69
2023/03/15 03:28:19;;;;;;;10.13;9.00;;;0.90;99.90;;;;;;5044026;28;20486;-70
2023/03/15 03:30:46;;;;;;;12.02;9.60;;;0.90;99.90;;;;;;5044280;28;20442;-69
2023/03/15 03:33:13;;;;;;;10.93;9.52;;;1.00;99.90;;;;;;5025640;28;20943;-70
2023/03/15 03:35:40;;;;;;;13.10;10.77;;;1.00;99.90;;;;;;5034893;28;20421;-70
2023/03/15 03:38:08;;;;;;;14.38;11.15;;;0.90;99.90;;;;;;5045216;28;20812;-70
2023/03/15 03:40:35;;;;;;;13.05;11.02;;;1.00;99.90;;;;;;5021369;28;20527;-70
2023/03/15 03:43:02;;;;;;;13.57;10.90;;;1.00;99.90;;;;;;5021353;28;20419;-70
2023/03/15 03:45:28;;;;;;;15.95;11.30;;;1.00;99.90;;;;;;5008021;28;20863;-71
2023/03/15 03:47:55;;;;;;;14.10;11.73;;;1.00;99.90;;;;;;5032906;28;20430;-69
2023/03/15 03:50:22;;;;;;;14.18;10.52;;;1.00;99.90;;;;;;5044364;28;20423;-70
2023/03/15 03:52:49;;;;;;;13.68;11.40;;;1.00;99.90;;;;;;5051080;28;20500;-68
2023/03/15 03:55:17;;;;;;;14.18;11.55;;;1.00;99.90;;;;;;5058453;28;20423;-69
2023/03/15 03:57:44;;;;;;;15.95;12.10;;;1.00;99.90;;;;;;5048700;28;20468;-71
2023/03/15 04:00:14;;;;;;;16.45;11.70;;;1.00;99.90;;;;;;5055898;28;20494;-72
2023/03/15 04:02:42;;;;;;;13.52;11.35;;;1.10;99.90;;;;;;5048503;28;20452;-71
2023/03/15 04:05:10;;;;;;;13.10;11.47;;;1.10;99.90;;;;;;5044042;28;20438;-72
2023/03/15 04:07:37;;;;;;;14.00;11.25;;;1.10;99.90;;;;;;5036080;28;20439;-73
2023/03/15 04:10:05;;;;;;;13.68;11.45;;;1.10;99.90;;;;;;5040706;28;20428;-73
2023/03/15 04:12:33;;;;;;;14.57;11.55;;;1.10;99.90;;;;;;5043567;28;20771;-74
2023/03/15 04:15:00;;;;;;;14.48;11.10;;;1.10;99.90;;;;;;5041016;28;20460;-73
2023/03/15 04:17:26;;;;;;;14.77;11.40;;;1.10;99.90;;;;;;5048479;28;20528;-74
2023/03/15 04:19:53;;;;;;;13.35;10.95;;;1.10;99.90;;;;;;5048979;28;20424;-74
2023/03/15 04:22:20;;;;;;;14.80;11.40;;;1.20;99.90;;;;;;5038875;28;20428;-75
2023/03/15 04:24:49;;;;;;;15.95;11.75;;;1.20;99.90;;;;;;5043772;28;20418;-74
2023/03/15 04:27:16;;;;;;;14.52;11.27;;;1.20;99.90;;;;;;5028770;28;20451;-75
2023/03/15 04:29:44;;;;;;;14.52;12.18;;;1.20;99.90;;;;;;5041795;28;20436;-74
2023/03/15 04:32:11;;;;;;;16.48;12.60;;;1.30;99.90;;;;;;5040698;28;20419;-74
2023/03/15 04:34:38;;;;;;;14.38;12.35;;;1.30;99.90;;;;;;5028823;28;20415;-74
2023/03/15 04:37:05;;;;;;;14.50;12.50;;;1.30;99.90;;;;;;5022613;28;20764;-74
2023/03/15 04:39:32;;;;;;;15.30;12.27;;;1.40;99.90;;;;;;5032382;28;20415;-73
2023/03/15 04:41:59;;;;;;;13.60;12.07;;;1.30;99.90;;;;;;5035130;28;20440;-75
2023/03/15 04:44:26;;;;;;;13.95;11.50;;;1.30;99.90;;;;;;5038871;28;20436;-73
2023/03/15 04:46:54;;;;;;;13.02;11.48;;;1.30;99.90;;;;;;5036514;28;20865;-73
2023/03/15 04:49:21;;;;;;;13.20;11.23;;;1.20;99.90;;;;;;5038432;28;20449;-71
2023/03/15 04:51:48;;;;;;;13.77;12.20;;;1.10;99.90;;;;;;5029366;28;20415;-72
2023/03/15 04:54:15;;;;;;;14.00;11.90;;;1.00;99.90;;;;;;5026150;28;20526;-71
2023/03/15 04:56:42;;;;;;;16.38;13.00;;;1.00;99.90;;;;;;5020443;28;20880;-72
2023/03/15 04:59:09;;;;;;;16.85;12.27;;;1.10;99.90;;;;;;5021840;28;20414;-72
2023/03/15 05:01:36;;;;;;;13.02;11.60;;;1.00;99.90;;;;;;5028922;28;20462;-73
2023/03/15 05:04:05;;;;;;;13.77;12.38;;;1.00;99.90;;;;;;5025993;28;20423;-73
2023/03/15 05:06:31;;;;;;;14.45;12.65;;;0.90;99.90;;;;;;5043526;28;20469;-73
2023/03/15 05:08:58;;;;;;;14.30;12.73;;;0.90;99.90;;;;;;5040777;28;20476;-71
2023/03/15 05:11:25;;;;;;;14.85;12.55;;;1.00;99.90;;;;;;5041940;28;20429;-71
2023/03/15 05:13:52;;;;;;;14.55;12.43;;;0.90;99.90;;;;;;5037443;28;20511;-71
2023/03/15 05:16:19;;;;;;;16.30;12.77;;;0.90;99.90;;;;;;5044064;28;20746;-72
2023/03/15 05:18:45;;;;;;;14.07;12.25;;;1.00;99.90;;;;;;5033368;28;20902;-71
2023/03/15 05:21:13;;;;;;;15.50;13.30;;;1.00;99.90;;;;;;5033394;28;20416;-73
2023/03/15 05:23:40;;;;;;;17.10;13.85;;;1.00;99.90;;;;;;5039163;28;20459;-72
2023/03/15 05:26:07;;;;;;;16.27;14.13;;;1.10;99.90;;;;;;5040839;28;20518;-72
2023/03/15 05:28:34;;;;;;;15.40;13.60;;;1.10;99.90;;;;;;5031543;28;20426;-72
2023/03/15 05:31:02;;;;;;;16.38;14.20;;;1.20;99.90;;;;;;5040889;28;20440;-74
2023/03/15 05:33:28;;;;;;;17.33;14.80;;;1.20;99.90;;;;;;5026392;28;20438;-74
2023/03/15 05:35:55;;;;;;;16.80;15.00;;;1.20;99.90;;;;;;5031391;28;20601;-73
2023/03/15 05:38:25;;;;;;;16.42;14.73;;;1.20;99.90;;;;;;5034916;28;20434;-74
2023/03/15 05:40:52;;;;;;;16.55;14.85;;;1.20;99.90;;;;;;5027575;28;20448;-74
2023/03/15 05:43:18;;;;;;;16.88;15.00;;;1.20;99.90;;;;;;5026133;28;20445;-74
2023/03/15 05:45:46;;;;;;;18.30;15.52;;;1.20;99.90;;;;;;5028431;28;20529;-74
2023/03/15 05:48:12;;;;;;;19.48;15.80;;;1.20;99.90;;;;;;5022827;28;20778;-74
2023/03/15 05:50:39;;;;;;;19.10;15.63;;;1.30;99.90;;;;;;5037298;28;20443;-76
2023/03/15 05:53:06;;;;;;;18.40;15.85;;;1.30;99.90;;;;;;5033298;28;20490;-75
2023/03/15 05:55:35;;;;;;;20.60;16.30;;;1.30;99.90;;;;;;5030124;28;20419;-76
2023/03/15 05:58:02;;;;;;;18.17;16.23;;;1.40;99.90;;;;;;5028517;28;20958;-76
2023/03/15 06:00:29;;;;;;;18.17;15.57;;;1.50;99.90;;;;;;5025943;28;20435;-73
2023/03/15 06:02:56;;;;;;;18.20;15.75;;;1.50;99.90;;;;;;5020790;28;20474;-73
2023/03/15 06:05:23;;;;;;;15.80;14.30;;;1.50;99.90;;;;;;5036922;28;20425;-74
2023/03/15 06:07:49;;;;;;;17.30;15.50;;;1.60;99.90;;;;;;5039273;28;20435;-76
2023/03/15 06:10:16;;;;;;;16.40;14.80;;;1.60;99.90;;;;;;5040117;28;20867;-76
2023/03/15 06:12:44;;;;;;;18.27;16.55;;;1.50;99.90;;;;;;5025361;28;20446;-76
2023/03/15 06:15:11;;;;;;;17.70;15.90;;;1.60;99.90;;;;;;5032075;28;20417;-74
2023/03/15 06:17:38;;;;;;;19.30;17.40;;;1.60;99.90;;;;;;5030348;28;20426;-75
2023/03/15 06:20:06;;;;;;;19.52;17.52;;;1.60;99.90;;;;;;5030720;28;20411;-77
2023/03/15 06:22:32;;;;;;;20.08;17.98;;;1.70;99.90;;;;;;5030797;28;20442;-75
2023/03/15 06:24:59;;;;;;;21.48;19.27;;;1.70;99.90;;;;;;5033698;28;20426;-76
2023/03/15 06:27:26;;;;;;;20.92;18.73;;;1.70;99.90;;;;;;5043152;28;20413;-77
2023/03/15 06:29:54;;;;;;;21.45;19.20;;;1.80;99.90;;;;;;5033575;28;20443;-76
2023/03/15 06:32:21;;;;;;;18.88;16.92;;;1.80;99.90;;;;;;5027926;28;20441;-77
2023/03/15 06:34:48;;;;;;;19.60;17.70;;;1.80;99.90;;;;;;5028413;28;20542;-75
2023/03/15 06:37:15;;;;;;;18.15;16.33;;;1.90;99.90;;;;;;5030739;28;20445;-75
2023/03/15 06:39:43;;;;;;;18.80;16.50;;;1.90;99.90;;;;;;5025647;28;20565;-75
2023/03/15 06:42:11;;;;;;;17.70;15.90;;;2.00;99.90;;;;;;5042865;28;20507;-74
2023/03/15 06:44:38;;;;;;;17.40;15.70;;;2.00;99.90;;;;;;5038529;28;20453;-76
2023/03/15 06:47:07;;;;;;;17.48;15.70;;;2.00;99.90;;;;;;5039422;28;20418;-76
2023/03/15 06:49:34;;;;;;;16.98;15.27;;;2.00;99.90;;;;;;5040761;28;20550;-75
2023/03/15 06:52:01;;;;;;;17.15;15.45;;;2.00;99.90;;;;;;5036548;28;21041;-76
2023/03/15 06:54:27;;;;;;;17.75;15.95;;;2.00;99.90;;;;;;5052971;28;20409;-74
2023/03/15 06:56:54;;;;;;;15.32;13.93;;;2.10;99.90;;;;;;5037064;28;20419;-75
2023/03/15 06:59:21;;;;;;;15.77;14.18;;;2.10;99.90;;;;;;5034592;28;20433;-77
2023/03/15 07:01:47;;;;;;;15.68;14.13;;;2.10;99.90;;;;;;5034620;28;20427;-74
2023/03/15 07:04:16;;;;;;;16.00;14.50;;;2.00;99.90;;;;;;5039726;28;20418;-76
2023/03/15 07:06:42;;;;;;;16.95;15.25;;;2.10;99.90;;;;;;5030949;28;20434;-76
2023/03/15 07:09:09;;;;;;;18.00;16.20;;;2.10;99.90;;;;;;5046494;28;20440;-74
2023/03/15 07:11:36;;;;;;;17.15;15.55;;;2.10;99.90;;;;;;5066592;22;20805;-72
2023/03/15 07:14:03;;;;;;;18.20;16.40;;;2.20;99.90;;;;;;5080708;28;20927;-72
2023/03/15 07:16:29;;;;;;;17.45;15.75;;;2.30;99.90;;;;;;5077981;28;20438;-74
2023/03/15 07:18:58;;;;;;;17.45;15.75;;;2.40;99.90;;;;;;5083507;28;20429;-71
2023/03/15 07:21:27;;;;;;;16.95;15.35;;;2.60;99.90;;;;;;5078198;28;21033;-72
2023/03/15 07:23:54;;;;;;;16.10;14.50;;;2.70;99.90;;;;;;5067255;28;20693;-72
2023/03/15 07:26:20;;;;;;;15.02;13.73;;;2.60;99.90;;;;;;5068750;28;20424;-72
2023/03/15 07:28:47;;;;;;;16.35;14.85;;;2.60;99.90;;;;;;5068208;28;20431;-72
2023/03/15 07:31:14;;;;;;;16.00;14.52;;;2.60;99.90;;;;;;5069546;28;20430;-72
2023/03/15 07:33:41;;;;;;;15.93;14.38;;;2.60;99.90;;;;;;5066429;28;20898;-74
2023/03/15 07:36:09;;;;;;;16.45;14.85;;;2.70;99.90;;;;;;5067851;28;20415;-72
2023/03/15 07:38:37;;;;;;;16.33;14.82;;;2.70;99.90;;;;;;5068214;28;20416;-72
2023/03/15 07:41:05;;;;;;;16.35;14.85;;;2.70;99.90;;;;;;5068510;28;20430;-72
2023/03/15 07:43:32;;;;;;;16.83;15.23;;;2.60;99.90;;;;;;5047213;28;20858;-71
2023/03/15 07:46:00;;;;;;;15.50;14.05;;;2.60;99.90;;;;;;5067671;28;20697;-73
2023/03/15 07:48:28;;;;;;;16.17;14.70;;;2.50;99.90;;;;;;5065359;28;20444;-73
2023/03/15 07:50:55;;;;;;;17.45;15.75;;;2.40;99.90;;;;;;5072972;28;21086;-71
2023/03/15 07:53:21;;;;;;;19.92;18.05;;;2.40;99.90;;;;;;5066553;28;20435;-73
2023/03/15 07:55:50;;;;;;;20.35;18.45;;;2.40;99.90;;;;;;5074628;28;20952;-73
2023/03/15 07:58:17;;;;;;;17.88;16.27;;;2.50;99.90;;;;;;5075483;28;20438;-72
2023/03/15 08:00:44;;;;;;;18.33;16.52;;;2.60;99.90;;;;;;5069089;28;20419;-72
2023/03/15 08:03:11;;;;;;;17.98;16.38;;;2.60;99.90;;;;;;5064807;28;20427;-72
2023/03/15 08:05:38;;;;;;;19.55;17.75;;;2.70;99.90;;;;;;5067291;28;20431;-72
2023/03/15 08:08:06;;;;;;;20.58;18.67;;;2.70;99.90;;;;;;5067300;28;20439;-72
2023/03/15 08:10:32;;;;;;;21.08;19.02;;;2.80;99.90;;;;;;5071816;28;20432;-74
2023/03/15 08:13:00;;;;;;;19.38;17.58;;;2.90;99.90;;;;;;5072332;28;20436;-72
2023/03/15 08:15:27;;;;;;;18.17;16.48;;;3.00;99.90;;;;;;5073503;28;20420;-73
2023/03/15 08:17:54;;;;;;;17.75;15.95;;;3.10;99.90;;;;;;5065224;28;20436;-73
2023/03/15 08:20:21;;;;;;;15.30;13.80;;;3.30;99.90;;;;;;5066016;28;20412;-73
2023/03/15 08:22:50;;;;;;;15.15;13.75;;;3.40;99.90;;;;;;5066342;28;20793;-73
2023/03/15 08:25:19;;;;;;;14.00;12.80;;;3.50;99.90;;;;;;5067274;28;20478;-73
2023/03/15 08:27:46;;;;;;;12.80;11.70;;;3.60;99.90;;;;;;5065954;28;20438;-74
2023/03/15 08:30:15;;;;;;;14.55;13.18;;;3.50;99.90;;;;;;5066693;28;20531;-73
2023/03/15 08:32:44;;;;;;;13.90;12.50;;;3.50;99.90;;;;;;5066107;28;20419;-73
2023/03/15 08:35:11;;;;;;;15.00;13.70;;;3.50;99.90;;;;;;5066331;28;20827;-72
2023/03/15 08:37:39;;;;;;;14.93;13.52;;;3.60;99.90;;;;;;5065754;28;20454;-72
2023/03/15 08:40:08;;;;;;;15.23;13.82;;;3.70;99.90;;;;;;5067260;28;20408;-72
2023/03/15 08:42:36;;;;;;;15.07;13.77;;;3.70;99.90;;;;;;5059863;28;20471;-74
2023/03/15 08:45:03;;;;;;;15.27;13.77;;;3.70;99.90;;;;;;5059091;28;20481;-73
2023/03/15 08:47:34;;;;;;;15.13;13.73;;;3.80;99.90;;;;;;5066544;28;20438;-73
2023/03/15 08:50:00;;;;;;;15.18;13.68;;;3.90;99.90;;;;;;5066038;28;20941;-73
2023/03/15 08:52:27;;;;;;;15.00;13.70;;;3.90;99.90;;;;;;5066286;28;20436;-73
2023/03/15 08:54:54;;;;;;;15.48;13.93;;;4.00;99.90;;;;;;5073063;28;20431;-73
2023/03/15 08:57:24;;;;;;;14.23;13.00;;;4.00;99.90;;;;;;5073500;28;20425;-73
2023/03/15 08:59:51;;;;;;;14.30;12.90;;;4.10;99.90;;;;;;5074997;28;20415;-73
2023/03/15 09:02:18;;;;;;;14.40;13.20;;;4.10;99.90;;;;;;5066373;28;20443;-73
2023/03/15 09:04:46;;;;;;;14.50;13.20;;;4.20;99.90;;;;;;5066363;28;20857;-73
2023/03/15 09:07:14;;;;;;;12.27;11.07;;;4.20;99.90;;;;;;5066680;28;20452;-73
2023/03/15 09:09:41;;;;;;;12.00;10.80;;;4.30;99.90;;;;;;5069272;28;20431;-73
2023/03/15 09:12:08;;;;;;;10.90;9.90;;;4.40;99.90;;;;;;4515586;28;15730423;-73
2023/03/15 09:14:35;;;;;;;10.20;9.30;;;4.50;99.90;;;;;;5076317;28;20415;-73
2023/03/15 09:17:02;;;;;;;9.65;8.65;;;4.70;99.90;;;;;;5067816;28;20415;-73
2023/03/15 09:19:29;;;;;;;8.50;7.70;;;4.90;99.90;;;;;;5067012;28;20486;-74
2023/03/15 09:21:57;;;;;;;7.88;7.18;;;4.90;99.90;;;;;;5066710;28;20436;-73
2023/03/15 09:24:23;;;;;;;8.75;7.85;;;4.90;99.90;;;;;;5067113;28;20412;-74
2023/03/15 09:26:50;;;;;;;8.70;7.90;;;5.00;99.90;;;;;;5068539;28;20423;-73
2023/03/15 09:29:17;;;;;;;8.95;8.05;;;5.00;99.90;;;;;;5067658;28;20414;-72
2023/03/15 09:31:43;;;;;;;8.60;7.80;;;5.10;99.90;;;;;;5066285;28;20435;-72
2023/03/15 09:34:11;;;;;;;8.90;8.10;;;5.00;99.90;;;;;;5064483;28;20431;-72
2023/03/15 09:36:38;;;;;;;9.50;8.07;;;4.90;99.90;;;;;;5066519;28;20495;-72
2023/03/15 09:39:07;;;;;;;8.68;7.97;;;4.90;99.90;;;;;;5067701;28;20415;-72
2023/03/15 09:41:42;;;;;;;8.52;7.80;;;5.00;99.90;;;;;;5061801;28;20515;-72
2023/03/15 09:44:23;;;;;;;10.23;9.30;;;5.30;99.90;;;;;;5067190;28;20415;-73
2023/03/15 09:46:59;;;;;;;8.50;7.70;;;5.80;99.90;;;;;;5067177;28;20857;-72
2023/03/15 09:49:37;;;;;;;8.60;7.80;;;6.10;98.00;;;;;;5060450;28;20407;-71
2023/03/15 09:52:09;;;;;;;7.40;6.70;;;6.20;97.10;;;;;;5066375;28;20789;-72
2023/03/15 09:54:44;;;;;;;8.00;7.30;;;6.40;95.90;;;;;;5068430;28;20412;-72
2023/03/15 09:57:15;;;;;;;7.25;6.03;;;6.70;96.40;;;;;;5067291;28;20438;-74
2023/03/15 09:59:47;;;;;;;8.05;5.50;;;7.00;95.80;;;;;;5067208;28;20441;-72
2023/03/15 10:02:21;;;;;;;6.32;5.72;;;7.30;93.00;;;;;;5065525;28;20814;-72
2023/03/15 10:04:51;;;;;;;7.20;6.60;;;7.50;92.90;;;;;;5072748;28;20434;-72
2023/03/15 10:07:18;;;;;;;6.90;6.20;;;7.30;92.20;;;;;;5085173;28;20845;-73
2023/03/15 10:09:46;;;;;;;6.32;5.72;;;7.00;92.90;;;;;;5087253;28;20419;-73
2023/03/15 10:12:15;;;;;;;6.40;5.80;;;7.00;92.60;;;;;;5079417;28;20827;-72
2023/03/15 10:15:15;;;;;;;6.10;5.50;;;7.00;91.90;;;;;;5080025;28;20491;-73
2023/03/15 10:17:50;;;;;;;6.40;5.78;;;6.80;93.20;;;;;;5072797;28;20463;-73
2023/03/15 10:20:21;;;;;;;5.90;4.70;;;7.10;92.70;;;;;;5077784;28;20435;-73
2023/03/15 10:22:55;;;;;;;6.10;4.95;;;7.30;89.50;;;;;;5078981;28;20446;-73
2023/03/15 10:25:26;;;;;;;5.20;4.70;;;7.50;90.60;;;;;;5078589;28;20430;-73
2023/03/15 10:27:57;;;;;;;6.55;4.72;;;8.00;90.20;;;;;;5077053;28;20443;-73
2023/03/15 10:30:25;;;;;;;5.72;4.13;;;8.30;81.50;;;;;;5079446;28;20438;-73
2023/03/15 10:32:58;;;;;;;4.72;4.32;;;8.60;83.40;;;;;;5079155;28;20415;-73
2023/03/15 10:35:25;;;;;;;5.50;4.20;;;9.10;81.10;;;;;;5079167;28;20920;-73
2023/03/15 10:37:52;;;;;;;4.88;4.18;;;9.60;79.10;;;;;;5076478;28;20487;-73
2023/03/15 10:40:41;;;;;;;4.78;3.97;;;10.00;76.50;;;;;;5080650;28;20418;-72
2023/03/15 10:43:20;;;;;;;5.13;4.63;;;10.50;70.30;;;;;;5068444;28;20426;-73
2023/03/15 10:45:57;;;;;;;4.40;3.97;;;10.70;65.00;;;;;;5077645;28;20416;-71
2023/03/15 10:48:24;;;;;;;4.97;3.80;;;10.80;64.20;;;;;;5075490;28;20443;-71
2023/03/15 10:50:51;;;;;;;3.20;2.90;;;11.10;58.40;;;;;;5083853;28;20422;-71
2023/03/15 10:53:20;;;;;;;3.92;3.40;;;11.00;63.60;;;;;;5078161;28;20438;-72
2023/03/15 10:55:49;;;;;;;6.95;3.83;;;10.90;62.50;;;;;;5080485;28;20848;-74
2023/03/15 10:58:26;;;;;;;5.88;3.50;;;10.60;60.00;;;;;;5079347;28;20522;-72
2023/03/15 11:00:58;;;;;;;4.30;3.10;;;10.00;62.00;;;;;;5079477;28;20415;-72
2023/03/15 11:03:26;;;;;;;3.87;3.10;;;9.30;64.00;;;;;;5081695;28;20458;-72
2023/03/15 11:05:55;;;;;;;4.10;3.08;;;8.90;69.00;;;;;;5092224;28;20411;-73
2023/03/15 11:08:24;;;;;;;5.20;3.20;;;8.90;68.20;;;;;;5081321;28;20603;-73
2023/03/15 11:10:58;;;;;;;5.03;3.20;;;9.30;67.60;;;;;;5078008;28;20430;-72
2023/03/15 11:13:27;;;;;;;3.92;2.80;;;9.80;65.60;;;;;;5082558;28;20420;-73
2023/03/15 11:16:00;;;;;;;4.30;2.83;;;10.50;61.50;;;;;;5092167;28;20410;-71
2023/03/15 11:18:30;;;;;;;7.00;2.90;;;10.70;59.90;;;;;;5080625;28;20441;-72
2023/03/15 11:20:59;;;;;;;10.20;6.03;;;10.80;59.10;;;;;;5079221;28;20412;-72
2023/03/15 11:23:29;;;;;;;8.88;3.88;;;11.00;61.10;;;;;;5075939;28;20481;-72
2023/03/15 11:25:58;;;;;;;4.20;2.67;;;11.40;60.20;;;;;;5075830;28;20474;-72
2023/03/15 11:28:28;;;;;;;4.00;2.70;;;11.60;56.80;;;;;;5076227;28;20411;-74
2023/03/15 11:30:58;;;;;;;4.18;2.38;;;11.50;56.80;;;;;;5076160;28;20438;-72
2023/03/15 11:33:37;;;;;;;4.15;2.50;;;11.30;53.20;;;;;;5061555;28;20448;-72
2023/03/15 11:36:11;;;;;;;3.10;2.22;;;11.00;54.20;;;;;;5075081;28;20435;-73
2023/03/15 11:38:42;;;;;;;4.10;2.50;;;11.40;55.40;;;;;;5080975;28;20435;-73
2023/03/15 11:41:20;;;;;;;3.90;2.65;;;11.60;52.40;;;;;;5082308;28;20407;-71
2023/03/15 11:43:59;;;;;;;3.40;2.20;;;12.10;51.10;;;;;;5080663;28;20422;-73
2023/03/15 11:46:30;;;;;;;2.55;1.90;;;12.40;48.60;;;;;;5075660;28;20419;-71
2023/03/15 11:49:02;;;;;;;4.35;1.98;;;12.90;46.30;;;;;;5083840;28;20414;-72
2023/03/15 11:51:33;;;;;;;3.35;2.13;;;13.50;47.90;;;;;;5089889;28;20431;-71
2023/03/15 11:54:07;;;;;;;3.63;2.07;;;14.70;47.60;;;;;;5078565;28;20443;-71
2023/03/15 11:56:51;;;;;;;4.77;2.07;;;14.90;43.60;;;;;;5081192;28;20419;-72
2023/03/15 11:59:20;;;;;;;3.25;2.40;;;13.70;42.30;;;;;;5084640;28;20411;-72
2023/03/15 12:01:49;;;;;;;2.78;2.00;;;12.90;45.40;;;;;;5079805;28;20465;-72
2023/03/15 12:04:42;;;;;;;2.92;2.00;;;13.10;46.40;;;;;;5071425;28;20428;-72
2023/03/15 12:07:30;;;;;;;3.85;1.73;;;14.10;45.80;;;;;;5072122;28;20440;-73
2023/03/15 12:09:57;;;;;;;3.42;2.10;;;15.10;42.20;;;;;;5082696;28;20422;-73
2023/03/15 12:12:44;;;;;;;3.88;1.95;;;15.60;43.00;;;;;;5082427;28;20454;-72
2023/03/15 12:15:46;;;;;;;2.20;1.60;;;16.60;38.50;;;;;;5077496;28;20428;-71
2023/03/15 12:18:33;;;;;;;2.30;1.60;;;17.50;37.80;;;;;;5068327;28;20886;-71
2023/03/15 12:21:20;;;;;;;2.83;1.70;;;18.10;38.80;;;;;;5070496;28;20408;-71
2023/03/15 12:23:57;;;;;;;3.10;1.70;;;18.70;37.60;;;;;;5062274;28;20431;-73
2023/03/15 12:26:41;;;;;;;2.63;1.50;;;18.50;33.50;;;;;;5070533;28;20477;-72
2023/03/15 12:29:18;;;;;;;2.60;1.50;;;17.90;35.50;;;;;;5068344;28;20471;-71
2023/03/15 12:31:51;;;;;;;3.40;1.67;;;17.60;34.50;;;;;;5068911;28;20435;-71
2023/03/15 12:34:25;;;;;;;3.50;1.42;;;17.70;36.70;;;;;;5066426;28;20476;-71
2023/03/15 12:36:56;;;;;;;2.70;1.60;;;17.60;34.90;;;;;;5064034;28;20423;-72
2023/03/15 12:39:41;;;;;;;2.72;1.88;;;16.70;37.10;;;;;;5071284;28;20414;-71
2023/03/15 12:42:27;;;;;;;3.60;2.00;;;17.70;36.00;;;;;;5070483;28;20434;-72
2023/03/15 12:45:15;;;;;;;3.05;1.70;;;18.40;34.80;;;;;;5026810;28;20885;-72
2023/03/15 12:47:46;;;;;;;2.25;1.50;;;20.70;31.40;;;;;;5058375;28;20445;-72
2023/03/15 12:50:37;;;;;;;3.70;1.80;;;19.80;30.80;;;;;;5083168;28;20418;-71
2023/03/15 12:53:12;;;;;;;2.83;1.88;;;17.50;34.30;;;;;;5049210;28;20889;-72
2023/03/15 12:55:40;;;;;;;2.05;1.40;;;18.40;35.20;;;;;;5067851;28;20489;-71